This is the latest recevied weather packets stored in our database for station/object IU4KCH-20. If no packets are shown the sender has not sent any weather packets the latest 1 day(s).
| Time | Temp. | Humidity | Pressure | Rain* | Wind** | Luminosity | Snow |
|---|---|---|---|---|---|---|---|
| 1778074637 | 28.89° C | 42% | 1005 hPa | - | - | - | - |
| 1778071926 | 23.33° C | 65% | 1005.5 hPa | - | - | - | - |
| 1778070123 | 27.22° C | 55% | 1005.7 hPa | - | - | - | - |
| 1778069221 | 26.67° C | 55% | 1005.7 hPa | - | - | - | - |
| 1778067418 | 22.78° C | 69% | 1005.8 hPa | - | - | - | - |
| 1778066517 | 22.22° C | 72% | 1006 hPa | - | - | - | - |
| 1778062002 | 20° C | 78% | 1006.5 hPa | - | - | - | - |
| 1778059292 | 18.33° C | 81% | 1006.4 hPa | - | - | - | - |
| 1778058389 | 18.89° C | 80% | 1006.3 hPa | - | - | - | - |
| 1778057491 | 18.33° C | 83% | 1006.5 hPa | - | - | - | - |
| 1778056587 | 17.78° C | 84% | 1006.5 hPa | - | - | - | - |
| 1778055686 | 17.78° C | 84% | 1006.5 hPa | - | - | - | - |
| 1778054785 | 17.78° C | 85% | 1006.6 hPa | - | - | - | - |
| 1778053884 | 17.22° C | 86% | 1006.5 hPa | - | - | - | - |
| 1778052979 | 17.78° C | 85% | 1006.6 hPa | - | - | - | - |
| 1778051176 | 16.67° C | 88% | 1006.6 hPa | - | - | - | - |
| 1778047571 | 16.11° C | 91% | 1007 hPa | - | - | - | - |
| 1778045767 | 15.56° C | 92% | 1007.3 hPa | - | - | - | - |
| 1778043063 | 15.56° C | 92% | 1007.5 hPa | - | - | - | - |
| 1778042162 | 15° C | 92% | 1007.5 hPa | - | - | - | - |
| 1778041261 | 15° C | 92% | 1007.6 hPa | - | - | - | - |
| 1778040360 | 15° C | 92% | 1007.8 hPa | - | - | - | - |
| 1778039459 | 15° C | 92% | 1007.5 hPa | - | - | - | - |
| 1778038557 | 15° C | 91% | 1007.6 hPa | - | - | - | - |
| 1778037657 | 15° C | 92% | 1007.7 hPa | - | - | - | - |
* Rain since midnight (hover to see other rain measurements)
** Current wind speed in m/s (hover to see current wind gust speed)